createdAt,value
2022-10-17T00:04:44.309Z,11.45
2022-10-17T00:09:45.767Z,13.38
2022-10-17T00:14:47.226Z,14.50
2022-10-17T00:19:48.681Z,19.75
2022-10-17T00:24:50.142Z,15.40
2022-10-17T00:29:51.816Z,16.65
2022-10-17T00:34:53.265Z,15.10
2022-10-17T00:39:54.707Z,13.95
2022-10-17T00:45:20.883Z,16.42
2022-10-17T00:50:22.337Z,15.50
2022-10-17T00:55:25.561Z,13.02
2022-10-17T01:00:27.113Z,11.45
2022-10-17T01:05:28.670Z,11.20
2022-10-17T01:10:33.112Z,6.85
2022-10-17T01:15:43.637Z,13.55
2022-10-17T01:21:09.429Z,10.20
2022-10-17T01:26:44.017Z,17.67
2022-10-17T01:37:08.524Z,11.23
2022-10-17T01:42:25.740Z,12.82
2022-10-17T01:47:31.887Z,14.02
2022-10-17T01:52:38.685Z,18.60
2022-10-17T01:57:42.365Z,12.95
2022-10-17T02:02:43.949Z,11.65
2022-10-17T02:07:45.403Z,12.70
2022-10-17T02:13:07.509Z,9.98
2022-10-17T02:18:38.223Z,11.32
2022-10-17T02:23:52.115Z,12.95
2022-10-17T02:29:15.106Z,20.00
2022-10-17T02:34:30.693Z,13.68
2022-10-17T02:39:32.140Z,9.00
2022-10-17T02:44:33.584Z,12.68
2022-10-17T02:49:37.266Z,11.55
2022-10-17T02:54:43.692Z,12.38
2022-10-17T02:59:45.453Z,9.90
2022-10-17T03:04:46.959Z,14.07
2022-10-17T03:09:48.409Z,9.40
2022-10-17T03:14:49.855Z,12.65
2022-10-17T03:19:51.319Z,10.25
2022-10-17T03:24:52.779Z,8.65
2022-10-17T03:29:54.235Z,15.88
2022-10-17T03:34:55.681Z,12.63
2022-10-17T03:39:57.133Z,19.80
2022-10-17T03:44:58.580Z,8.15
2022-10-17T03:50:00.070Z,9.98
2022-10-17T03:55:01.535Z,10.48
2022-10-17T04:00:03.949Z,13.90
2022-10-17T04:05:05.818Z,15.50
2022-10-17T04:10:07.689Z,8.52
2022-10-17T04:15:09.544Z,10.32
2022-10-17T04:20:11.028Z,10.73
2022-10-17T04:25:12.482Z,8.73
2022-10-17T04:30:13.955Z,11.32
2022-10-17T04:35:15.462Z,12.05
2022-10-17T04:40:16.996Z,9.85
2022-10-17T04:45:18.461Z,11.20
2022-10-17T04:50:19.910Z,10.45
2022-10-17T04:55:21.363Z,10.93
2022-10-17T05:00:22.816Z,10.77
2022-10-17T05:05:24.294Z,11.25
2022-10-17T05:10:25.732Z,9.30
2022-10-17T05:15:27.180Z,11.35
2022-10-17T05:20:28.625Z,9.27
2022-10-17T05:25:30.079Z,10.43
2022-10-17T05:30:35.192Z,11.13
2022-10-17T05:35:38.954Z,9.65
2022-10-17T05:40:40.404Z,12.18
2022-10-17T05:45:41.901Z,10.25
2022-10-17T05:50:43.362Z,10.75
2022-10-17T05:55:44.809Z,9.65
2022-10-17T06:05:52.642Z,11.63
2022-10-17T06:10:54.102Z,10.00
2022-10-17T06:15:55.569Z,10.10
2022-10-17T06:21:07.824Z,8.43
2022-10-17T06:26:09.264Z,8.05
2022-10-17T06:31:13.121Z,10.63
2022-10-17T06:36:14.757Z,9.50
2022-10-17T06:41:16.623Z,11.02
2022-10-17T06:46:18.652Z,12.48
2022-10-17T06:51:20.129Z,13.50
2022-10-17T06:56:21.589Z,9.50
2022-10-17T07:01:23.091Z,9.40
2022-10-17T07:06:24.699Z,12.57
2022-10-17T07:11:26.148Z,9.77
2022-10-17T07:16:27.910Z,13.70
2022-10-17T07:21:29.423Z,10.35
2022-10-17T07:26:30.872Z,14.27
2022-10-17T07:31:32.316Z,12.38
2022-10-17T07:36:33.789Z,10.77
2022-10-17T07:41:35.249Z,17.50
2022-10-17T07:46:36.704Z,13.88
2022-10-17T07:51:38.232Z,14.18
2022-10-17T07:56:39.699Z,15.38
2022-10-17T08:01:41.159Z,11.30
2022-10-17T08:06:42.628Z,11.35
2022-10-17T08:11:44.185Z,13.13
2022-10-17T08:16:45.700Z,14.27
2022-10-17T08:21:47.159Z,13.38
2022-10-17T08:26:51.710Z,13.95
2022-10-17T08:31:58.512Z,11.60
2022-10-17T08:37:03.007Z,17.45
2022-10-17T08:42:26.957Z,15.27
2022-10-17T08:47:40.962Z,11.68
2022-10-17T08:52:51.792Z,11.55
2022-10-17T08:57:53.271Z,12.07
2022-10-17T09:03:15.978Z,12.55
2022-10-17T09:08:22.666Z,13.88
2022-10-17T09:13:32.742Z,10.85
2022-10-17T09:18:43.070Z,11.43
2022-10-17T09:23:53.304Z,11.57
2022-10-17T09:29:01.158Z,10.88
2022-10-17T09:34:02.802Z,11.68
2022-10-17T09:39:22.386Z,13.07
2022-10-17T09:44:25.820Z,14.65
2022-10-17T09:49:33.359Z,14.10
2022-10-17T09:54:50.416Z,11.23
2022-10-17T10:00:02.503Z,17.45
2022-10-17T10:05:17.224Z,9.60
2022-10-17T10:10:27.779Z,14.95
2022-10-17T10:15:32.422Z,10.48
2022-10-17T10:20:35.655Z,16.10
2022-10-17T10:25:37.120Z,15.20
2022-10-17T10:30:39.934Z,13.25
2022-10-17T10:35:41.659Z,19.05
2022-10-17T10:40:48.068Z,15.18
2022-10-17T10:45:49.573Z,12.52
2022-10-17T10:51:12.424Z,13.82
2022-10-17T10:56:24.707Z,18.15
2022-10-17T11:02:13.128Z,14.55
2022-10-17T11:07:15.994Z,15.30
2022-10-17T11:12:20.917Z,15.05
2022-10-17T11:17:35.120Z,15.57
2022-10-17T11:22:47.926Z,15.15
2022-10-17T11:27:49.430Z,21.00
2022-10-17T11:32:53.820Z,23.73
2022-10-17T11:38:24.437Z,17.58
2022-10-17T11:43:32.330Z,15.98
2022-10-17T11:49:07.618Z,22.80
2022-10-17T11:54:13.781Z,21.77
2022-10-17T11:59:38.237Z,16.73
2022-10-17T12:04:49.622Z,18.42
2022-10-17T12:09:54.318Z,16.73
2022-10-17T12:15:24.309Z,21.00
2022-10-17T12:20:27.728Z,23.83
2022-10-17T12:25:32.046Z,20.65
2022-10-17T12:30:33.662Z,18.17
2022-10-17T12:35:36.372Z,16.63
2022-10-17T12:40:37.684Z,15.50
2022-10-17T12:45:58.062Z,16.35
2022-10-17T12:56:46.720Z,14.60
2022-10-17T13:01:50.977Z,20.40
2022-10-17T13:06:54.326Z,18.20
2022-10-17T13:11:57.463Z,16.98
2022-10-17T13:17:00.730Z,22.83
2022-10-17T13:22:06.900Z,13.85
2022-10-17T13:27:25.547Z,16.35
2022-10-17T13:32:34.555Z,13.23
2022-10-17T13:37:36.139Z,15.32
2022-10-17T13:42:38.951Z,15.00
2022-10-17T13:47:40.426Z,18.00
2022-10-17T13:52:41.902Z,20.67
2022-10-17T13:57:43.354Z,14.70
2022-10-17T14:02:44.846Z,11.57
2022-10-17T14:08:15.110Z,14.13
2022-10-17T14:13:21.537Z,12.30
2022-10-17T14:18:36.467Z,11.93
2022-10-17T14:23:40.391Z,12.63
2022-10-17T14:28:43.360Z,17.42
2022-10-17T14:33:50.446Z,14.18
2022-10-17T14:38:52.754Z,16.15
2022-10-17T14:44:01.980Z,16.05
2022-10-17T14:49:06.193Z,13.10
2022-10-17T14:54:25.057Z,10.57
2022-10-17T15:09:50.251Z,12.10
2022-10-17T15:14:51.805Z,6.20
2022-10-17T15:19:53.330Z,6.68
2022-10-17T15:24:54.816Z,6.18
2022-10-17T15:29:56.269Z,8.65
2022-10-17T15:34:57.774Z,9.00
2022-10-17T15:39:59.228Z,9.48
2022-10-17T15:45:00.717Z,8.20
2022-10-17T15:50:02.258Z,8.40
2022-10-17T15:55:05.535Z,9.45
2022-10-17T16:00:16.370Z,12.10
2022-10-17T16:05:23.075Z,11.45
2022-10-17T16:10:25.862Z,11.57
2022-10-17T16:15:27.967Z,7.55
2022-10-17T16:20:29.462Z,9.45
2022-10-17T16:25:31.270Z,9.55
2022-10-17T16:30:32.815Z,13.65
2022-10-17T16:35:36.762Z,12.88
2022-10-17T16:40:40.114Z,10.02
2022-10-17T16:45:41.576Z,10.00
2022-10-17T16:50:43.033Z,11.73
2022-10-17T16:55:44.479Z,8.15
2022-10-17T17:00:45.998Z,11.63
2022-10-17T17:05:51.744Z,11.77
2022-10-17T17:10:55.292Z,10.18
2022-10-17T17:16:06.977Z,12.77
2022-10-17T17:21:09.099Z,8.77
2022-10-17T17:26:20.858Z,8.75
2022-10-17T17:31:24.359Z,14.07
2022-10-17T17:36:30.565Z,11.32
2022-10-17T17:41:32.114Z,9.60
2022-10-17T17:46:33.570Z,12.45
2022-10-17T17:51:37.406Z,9.45
2022-10-17T17:56:38.881Z,11.43
2022-10-17T18:01:40.445Z,12.70
2022-10-17T18:06:42.006Z,9.18
2022-10-17T18:11:43.452Z,11.32
2022-10-17T18:16:44.909Z,11.35
2022-10-17T18:21:46.390Z,11.88
2022-10-17T18:26:47.849Z,11.48
2022-10-17T18:31:49.397Z,12.25
2022-10-17T18:36:52.769Z,9.98
2022-10-17T18:41:54.342Z,11.55
2022-10-17T18:46:58.563Z,10.27
2022-10-17T18:52:02.963Z,11.20
2022-10-17T18:57:04.554Z,14.88
2022-10-17T19:02:06.543Z,12.50
2022-10-17T19:07:08.089Z,14.00
2022-10-17T19:12:09.545Z,14.65
2022-10-17T19:17:10.994Z,8.88
2022-10-17T19:22:12.450Z,9.88
2022-10-17T19:27:13.932Z,16.00
2022-10-17T19:32:17.933Z,12.02
2022-10-17T19:37:22.175Z,9.57
2022-10-17T19:42:23.685Z,11.70
2022-10-17T19:47:25.318Z,14.10
2022-10-17T19:52:27.649Z,18.95
2022-10-17T19:57:29.239Z,15.93
2022-10-17T20:02:30.913Z,14.32
2022-10-17T20:07:32.563Z,17.67
2022-10-17T20:12:34.224Z,16.55
2022-10-17T20:17:35.701Z,17.35
2022-10-17T20:22:37.176Z,19.42
2022-10-17T20:27:38.658Z,16.35
2022-10-17T20:32:40.126Z,17.73
2022-10-17T20:37:42.737Z,12.25
2022-10-17T20:42:44.553Z,21.85
2022-10-17T20:47:52.327Z,16.90
2022-10-17T20:53:10.974Z,13.57
2022-10-17T20:58:15.456Z,16.48
2022-10-17T21:03:16.904Z,18.00
2022-10-17T21:08:18.352Z,20.35
2022-10-17T21:13:19.796Z,22.10
2022-10-17T21:18:21.237Z,18.45
2022-10-17T21:23:22.720Z,20.23
2022-10-17T21:28:24.177Z,16.80
2022-10-17T21:33:25.643Z,18.88
2022-10-17T21:38:27.089Z,17.08
2022-10-17T21:43:28.558Z,17.70
2022-10-17T21:48:30.013Z,20.67
2022-10-17T21:53:31.493Z,19.30
2022-10-17T21:58:33.455Z,22.98
2022-10-17T22:03:35.638Z,17.30
2022-10-17T22:13:38.450Z,27.70
2022-10-17T22:18:40.017Z,24.00
2022-10-17T22:23:42.225Z,17.50
2022-10-17T22:28:43.675Z,18.98
2022-10-17T22:33:45.144Z,14.55
2022-10-17T22:38:46.593Z,22.92
2022-10-17T22:43:48.164Z,23.33
2022-10-17T22:48:49.643Z,19.33
2022-10-17T22:53:51.106Z,23.27
2022-10-17T22:58:52.599Z,16.63
2022-10-17T23:03:54.147Z,27.25
2022-10-17T23:08:55.649Z,20.63
2022-10-17T23:13:57.140Z,20.02
2022-10-17T23:18:58.646Z,15.60
2022-10-17T23:24:00.095Z,18.55
2022-10-17T23:29:01.608Z,27.55
2022-10-17T23:34:03.163Z,11.07
2022-10-17T23:39:05.484Z,20.67
2022-10-17T23:44:06.974Z,15.95
2022-10-17T23:49:08.430Z,21.52
2022-10-17T23:54:09.871Z,22.15
2022-10-17T23:59:11.371Z,18.90
